createdAt,value
2022-08-23T00:00:24.201Z,68.97
2022-08-23T00:05:28.586Z,56.53
2022-08-23T00:10:30.509Z,52.40
2022-08-23T00:15:33.578Z,45.20
2022-08-23T00:20:35.371Z,42.78
2022-08-23T00:25:37.167Z,50.30
2022-08-23T00:30:39.113Z,43.42
2022-08-23T00:35:40.970Z,35.97
2022-08-23T00:40:52.095Z,48.90
2022-08-23T00:46:24.592Z,56.15
2022-08-23T00:51:58.532Z,54.35
2022-08-23T00:57:05.490Z,48.88
2022-08-23T01:02:08.419Z,54.70
2022-08-23T01:07:16.487Z,48.92
2022-08-23T01:12:32.225Z,46.72
2022-08-23T01:17:46.232Z,66.25
2022-08-23T01:22:51.029Z,58.97
2022-08-23T01:27:53.157Z,60.40
2022-08-23T01:33:01.346Z,47.78
2022-08-23T01:38:04.641Z,45.38
2022-08-23T01:43:07.371Z,40.45
2022-08-23T01:48:09.250Z,43.22
2022-08-23T01:53:12.875Z,42.05
2022-08-23T01:58:14.848Z,43.97
2022-08-23T02:03:17.315Z,38.35
2022-08-23T02:08:37.834Z,38.13
2022-08-23T02:13:39.630Z,35.20
2022-08-23T02:18:41.508Z,51.00
2022-08-23T02:23:43.808Z,30.02
2022-08-23T02:28:45.973Z,47.88
2022-08-23T02:33:48.506Z,34.17
2022-08-23T02:38:50.418Z,55.88
2022-08-23T02:43:53.261Z,50.83
2022-08-23T02:48:55.761Z,63.20
2022-08-23T02:53:57.637Z,59.78
2022-08-23T02:59:00.157Z,52.55
2022-08-23T03:04:03.713Z,47.60
2022-08-23T03:09:07.568Z,46.30
2022-08-23T03:14:09.484Z,41.20
2022-08-23T03:19:11.625Z,41.35
2022-08-23T03:24:13.667Z,37.80
2022-08-23T03:29:15.494Z,43.30
2022-08-23T03:34:17.486Z,45.60
2022-08-23T03:39:19.287Z,44.80
2022-08-23T03:44:21.106Z,49.35
2022-08-23T03:49:22.956Z,41.50
2022-08-23T03:54:24.974Z,45.42
2022-08-23T03:59:27.850Z,62.92
2022-08-23T04:04:29.731Z,68.05
2022-08-23T04:09:31.651Z,50.35
2022-08-23T04:14:33.460Z,64.60
2022-08-23T04:19:36.177Z,49.47
2022-08-23T04:24:38.531Z,43.05
2022-08-23T04:29:41.088Z,44.13
2022-08-23T04:34:45.351Z,52.20
2022-08-23T04:40:06.029Z,49.78
2022-08-23T04:45:08.868Z,43.15
2022-08-23T04:50:11.076Z,31.08
2022-08-23T04:55:13.469Z,34.33
2022-08-23T05:00:16.744Z,45.35
2022-08-23T05:05:18.556Z,29.58
2022-08-23T05:10:20.443Z,25.70
2022-08-23T05:15:22.313Z,41.70
2022-08-23T05:20:24.132Z,58.40
2022-08-23T05:25:45.904Z,57.92
2022-08-23T05:31:20.871Z,42.10
2022-08-23T05:36:23.230Z,26.85
2022-08-23T05:41:25.235Z,40.90
2022-08-23T05:46:40.117Z,30.50
2022-08-23T05:51:45.328Z,35.90
2022-08-23T05:56:53.362Z,27.90
2022-08-23T06:01:55.187Z,41.60
2022-08-23T06:06:58.924Z,25.65
2022-08-23T06:12:01.292Z,38.40
2022-08-23T06:17:03.133Z,32.65
2022-08-23T06:22:05.487Z,35.03
2022-08-23T06:27:07.535Z,25.17
2022-08-23T06:32:09.347Z,33.80
2022-08-23T06:37:14.584Z,24.33
2022-08-23T06:42:38.185Z,24.38
2022-08-23T06:47:40.307Z,33.10
2022-08-23T06:52:42.129Z,24.30
2022-08-23T06:57:45.604Z,23.55
2022-08-23T07:02:50.121Z,25.92
2022-08-23T07:07:52.097Z,31.88
2022-08-23T07:12:53.879Z,25.65
2022-08-23T07:17:58.188Z,22.60
2022-08-23T07:23:01.441Z,25.92
2022-08-23T07:28:03.637Z,25.25
2022-08-23T07:33:07.323Z,22.40
2022-08-23T07:38:09.383Z,28.85
2022-08-23T07:43:11.903Z,23.65
2022-08-23T07:48:14.357Z,31.50
2022-08-23T07:53:27.533Z,31.55
2022-08-23T07:58:40.255Z,27.70
2022-08-23T08:03:47.940Z,30.02
2022-08-23T08:08:51.081Z,42.28
2022-08-23T08:13:53.656Z,17.00
2022-08-23T08:18:59.076Z,20.77
2022-08-23T08:24:01.734Z,16.20
2022-08-23T08:29:04.227Z,20.48
2022-08-23T08:34:07.800Z,27.92
2022-08-23T08:39:16.208Z,21.77
2022-08-23T08:44:47.236Z,20.95
2022-08-23T08:49:57.506Z,28.13
2022-08-23T08:55:17.086Z,16.42
2022-08-23T09:00:37.079Z,19.33
2022-08-23T09:05:45.764Z,18.58
2022-08-23T09:11:02.883Z,37.75
2022-08-23T09:16:16.714Z,83.15
2022-08-23T09:21:19.127Z,22.58
2022-08-23T09:26:25.957Z,40.78
2022-08-23T09:31:47.561Z,28.15
2022-08-23T09:36:52.150Z,31.15
2022-08-23T09:41:54.226Z,31.08
2022-08-23T09:47:08.569Z,30.25
2022-08-23T09:52:34.024Z,27.35
2022-08-23T09:57:37.326Z,35.53
2022-08-23T10:02:39.746Z,36.65
2022-08-23T10:08:00.088Z,27.10
2022-08-23T10:13:04.092Z,32.50
2022-08-23T10:18:18.220Z,32.08
2022-08-23T10:24:01.140Z,32.80
2022-08-23T10:29:38.746Z,31.17
2022-08-23T10:34:50.740Z,37.70
2022-08-23T10:40:17.555Z,117.85
2022-08-23T10:45:30.644Z,21.07
2022-08-23T10:50:54.635Z,28.60
2022-08-23T10:56:06.122Z,31.38
2022-08-23T11:01:09.641Z,25.15
2022-08-23T11:06:42.023Z,27.52
2022-08-23T11:11:51.052Z,36.67
2022-08-23T11:17:01.052Z,31.20
2022-08-23T11:22:24.647Z,22.33
2022-08-23T11:27:30.149Z,36.17
2022-08-23T11:32:37.925Z,29.77
2022-08-23T11:43:06.193Z,31.55
2022-08-23T11:48:22.780Z,27.92
2022-08-23T11:53:53.303Z,30.00
2022-08-23T11:59:18.354Z,34.22
2022-08-23T12:04:51.758Z,32.03
2022-08-23T12:09:56.296Z,32.03
2022-08-23T12:15:06.765Z,31.08
2022-08-23T12:20:16.875Z,33.80
2022-08-23T12:25:21.617Z,38.28
2022-08-23T12:30:29.632Z,33.15
2022-08-23T12:35:58.204Z,27.83
2022-08-23T12:41:17.907Z,40.50
2022-08-23T12:46:30.683Z,48.58
2022-08-23T12:51:32.879Z,36.95
2022-08-23T12:56:36.506Z,38.28
2022-08-23T13:01:40.079Z,29.13
2022-08-23T13:06:55.321Z,33.85
2022-08-23T13:11:59.106Z,34.38
2022-08-23T13:17:25.415Z,28.60
2022-08-23T13:22:28.977Z,30.90
2022-08-23T13:27:38.407Z,32.15
2022-08-23T13:32:43.521Z,57.03
2022-08-23T13:37:47.479Z,26.77
2022-08-23T13:43:05.617Z,29.05
2022-08-23T13:48:16.978Z,35.85
2022-08-23T13:53:19.089Z,32.50
2022-08-23T13:58:29.069Z,41.33
2022-08-23T14:03:32.485Z,42.30
2022-08-23T14:08:34.269Z,39.38
2022-08-23T14:13:37.451Z,54.00
2022-08-23T14:19:15.095Z,48.20
2022-08-23T14:24:01.246Z,35.22
2022-08-23T14:29:03.144Z,54.88
2022-08-23T14:34:06.251Z,59.30
2022-08-23T14:39:08.166Z,58.70
2022-08-23T14:44:09.943Z,53.70
2022-08-23T14:49:13.064Z,91.90
2022-08-23T14:54:20.555Z,75.28
2022-08-23T14:59:22.557Z,53.40
2022-08-23T15:04:25.491Z,61.08
2022-08-23T15:09:36.091Z,49.05
2022-08-23T15:14:38.163Z,59.88
2022-08-23T15:19:40.010Z,89.07
2022-08-23T15:24:42.112Z,64.95
2022-08-23T15:29:43.938Z,81.75
2022-08-23T15:34:46.415Z,57.78
2022-08-23T15:39:49.693Z,66.72
2022-08-23T15:44:51.883Z,46.83
2022-08-23T15:49:54.004Z,61.53
2022-08-23T15:54:55.875Z,46.72
2022-08-23T15:59:59.043Z,66.20
2022-08-23T16:05:01.255Z,58.25
2022-08-23T16:10:06.583Z,68.38
2022-08-23T16:15:09.616Z,44.47
2022-08-23T16:20:12.590Z,76.90
2022-08-23T16:25:14.564Z,61.80
2022-08-23T16:30:16.530Z,69.00
2022-08-23T16:35:18.504Z,83.78
2022-08-23T16:40:20.840Z,57.97
2022-08-23T16:45:25.766Z,63.17
2022-08-23T16:50:28.445Z,62.50
2022-08-23T16:55:30.259Z,70.03
2022-08-23T17:00:32.642Z,61.35
2022-08-23T17:05:34.607Z,93.00
2022-08-23T17:10:36.507Z,65.82
2022-08-23T17:15:38.539Z,47.85
2022-08-23T17:20:40.647Z,62.55
2022-08-23T17:25:47.617Z,56.35
2022-08-23T17:30:49.890Z,67.80
2022-08-23T17:35:51.745Z,62.03
2022-08-23T17:40:54.936Z,83.28
2022-08-23T17:45:56.814Z,137.88
2022-08-23T17:51:00.023Z,63.67
2022-08-23T17:56:02.068Z,58.53
2022-08-23T18:01:08.154Z,59.03
2022-08-23T18:06:16.850Z,91.40
2022-08-23T18:11:19.204Z,73.63
2022-08-23T18:16:21.081Z,63.55
2022-08-23T18:21:24.560Z,73.97
2022-08-23T18:26:46.383Z,73.03
2022-08-23T18:31:51.152Z,55.50
2022-08-23T18:36:53.823Z,71.45
2022-08-23T18:41:55.615Z,61.50
2022-08-23T18:46:57.908Z,63.28
2022-08-23T18:52:00.229Z,63.45
2022-08-23T18:57:02.701Z,68.25
2022-08-23T19:02:04.801Z,62.28
2022-08-23T19:07:08.267Z,54.17
2022-08-23T19:12:10.162Z,77.70
2022-08-23T19:17:12.069Z,52.53
2022-08-23T19:22:14.588Z,63.08
2022-08-23T19:27:16.466Z,72.68
2022-08-23T19:32:18.436Z,54.60
2022-08-23T19:37:23.059Z,70.47
2022-08-23T19:42:26.552Z,59.05
2022-08-23T19:47:28.853Z,45.22
2022-08-23T19:52:30.750Z,54.08
2022-08-23T19:57:33.697Z,56.05
2022-08-23T20:02:35.471Z,51.28
2022-08-23T20:07:38.159Z,47.45
2022-08-23T20:12:41.805Z,53.17
2022-08-23T20:17:44.863Z,52.75
2022-08-23T20:23:05.518Z,52.17
2022-08-23T20:28:08.339Z,51.50
2022-08-23T20:33:11.470Z,50.80
2022-08-23T20:38:33.342Z,60.63
2022-08-23T20:43:38.974Z,54.50
2022-08-23T20:48:40.782Z,58.20
2022-08-23T20:53:42.611Z,57.38
2022-08-23T20:58:45.398Z,72.85
2022-08-23T21:03:49.305Z,56.88
2022-08-23T21:08:53.952Z,53.53
2022-08-23T21:13:57.006Z,51.13
2022-08-23T21:18:59.023Z,56.25
2022-08-23T21:24:02.996Z,65.60
2022-08-23T21:29:07.782Z,46.33
2022-08-23T21:34:09.770Z,55.70
2022-08-23T21:39:11.554Z,48.40
2022-08-23T21:44:16.514Z,57.53
2022-08-23T21:49:19.030Z,60.30
2022-08-23T21:54:21.355Z,48.45
2022-08-23T21:59:23.397Z,30.77
2022-08-23T22:04:25.199Z,42.25
2022-08-23T22:09:27.924Z,46.80
2022-08-23T22:14:33.731Z,44.05
2022-08-23T22:19:35.547Z,52.55
2022-08-23T22:24:37.886Z,38.95
2022-08-23T22:29:40.216Z,40.60
2022-08-23T22:34:44.549Z,35.45
2022-08-23T22:39:46.409Z,30.75
2022-08-23T22:44:48.239Z,37.13
2022-08-23T22:49:50.034Z,44.70
2022-08-23T22:54:51.824Z,38.97
2022-08-23T22:59:53.639Z,30.17
2022-08-23T23:04:57.253Z,38.92
2022-08-23T23:09:59.080Z,39.45
2022-08-23T23:15:01.135Z,36.90
2022-08-23T23:20:22.571Z,35.72
2022-08-23T23:25:24.339Z,33.72
2022-08-23T23:30:26.530Z,30.85
2022-08-23T23:35:28.686Z,36.50
2022-08-23T23:40:30.976Z,31.67
2022-08-23T23:45:33.002Z,36.20
2022-08-23T23:50:35.240Z,34.38
2022-08-23T23:55:37.060Z,32.85
